Rorketon, Canada
Current Conditions -  °F | °C
As of 12:00 PM on Friday 31 Oct 2014 (Local Time) from CYDN Reporting Station
Clear Clear  
Wind Chill: 24°   Ceiling: Unl
Heat Index: 32°   Visibility: 9mi
Dew Point: 23°   Wind: 9mph
Humidity: 69%   Direction: 120°ESE
Pressure: 30.36"   Gusts: NA
Location:  51.38°N, 99.6°W
Report Text: CYDN 311700Z AUTO 12008KT 100V170 9SM CLR 00/M05 A3036 RMK SLP302
Loading
Personal Weather Stations






























Interactive Weather Map
Tropical Storm Tracking
New forecast layout! Learn more

10-Day Weather Forecast

Advertisements
Track Severe Weather on mobile